Weather at Turner Valley Bar N Ranch Airport

Public forecast

Using degrees Celsius for public forecast. Weather courtesy of forecast.io.

Closest aviation weather report (METAR) to Turner Valley Bar N Ranch Airport

Closest report is Calgary / Springbank Airport, 27.0 nm (49.9 km) N. Retrieved 2022/01/21 10:00 UTC (57 minutes ago):

CYBW 211000Z AUTO 34004KT 9SM OVC086 01/M06 A3000 RMK SLP194

Closest aviation forecast (TAF) to Turner Valley Bar N Ranch Airport

Forecast is more than 6 hours old.

Closest forecast is Calgary / Springbank Airport, 27.0 nm (49.9 km) N. Retrieved 2022-01-21 00:00 UTC (11 hours ago):

TAF CYBW 202340Z 2100/2105 29025G35KT P6SM SCT240 BECMG 2100/2102 30020G30KT RMK FCST BASED ON AUTO OBS NXT FCST BY 211300Z